PWSweather.com
Personal Weather Stations
Station Observations
VPOKROGLO
Kal Nad Kanalom, PrimorskaSI

Kal Nad KanalomPrimorskaSI

Lat: 46.072, Lon: 13.734

Elevation: 2526

Station Type: WS-2355

http://www.okroglovreme.com

Latest ConditionsUpdated 7:45:01 PM GMT+01:01 Tuesday, Sep 2, 2014
Currently Today's Max Today's Min Today's Average
Temperature 53.8°F12.1°C 60.1°F15.6°C 51.1°F10.6°C 54.5°F12.5°C
Dew Point 47.4°F8.6°C 48.2°F9.0°C 43.6°F6.4°C 46.0°F7.8°C
Winds 3.1 mph NNE5.0 kmh NNE 4.5 mph NNE7.2 kmh NNE - 2.8 mph 4.5 kmh
Wind Gusts 8.9 mph14.3 kmh 15.9 mph25.6 kmh - -
Humidity 79% 86% 55% 74%
Pressure 29.77 in1008.1 mb 29.77 in1008.1 mb 29.69 in1005.4 mb -
Precipitation - 0.67 in17.0 mm - -
Hour Temp Dew Point Humidity Winds Wind Gusts Pressure Precip Precip Rate Daily Precip Total
07:45 PM 53.8°F12.1°C 47.4°F8.6°C 79% 3.1 mph NNE5.0 kmh NNE 8.9 mph14.3 kmh 29.77 in1008.1 mb 0.02 in0.5 mm 0.00 in/hr0.0 mm/hr 0.67 in17.0 mm
07:30 PM 54.5°F12.5°C 47.8°F8.8°C 78% 3.2 mph N5.1 kmh N 9.2 mph14.8 kmh 29.76 in1007.8 mb 0.02 in0.5 mm 0.08 in/hr2.0 mm/hr 0.67 in17.0 mm
07:15 PM 55.2°F12.9°C 47.8°F8.8°C 76% 3.7 mph N6.0 kmh N 13.2 mph21.2 kmh 29.76 in1007.8 mb 0.00 in0.0 mm 0.00 in/hr0.0 mm/hr 0.65 in16.5 mm
07:00 PM 55.2°F12.9°C 47.4°F8.6°C 75% 4.4 mph NNE7.1 kmh NNE 11.2 mph18.0 kmh 29.75 in1007.5 mb 0.00 in0.0 mm 0.00 in/hr0.0 mm/hr 0.65 in16.5 mm
06:45 PM 55.2°F12.9°C 47.8°F8.8°C 76% 3.7 mph N6.0 kmh N 12.5 mph20.1 kmh 29.75 in1007.5 mb 0.00 in0.0 mm 0.00 in/hr0.0 mm/hr 0.65 in16.5 mm
06:30 PM 54.7°F12.6°C 48.0°F8.9°C 78% 3.3 mph NNE5.3 kmh NNE 10.1 mph16.3 kmh 29.75 in1007.5 mb 0.00 in0.0 mm 0.00 in/hr0.0 mm/hr 0.65 in16.5 mm
06:15 PM 54.1°F12.3°C 47.8°F8.8°C 79% 3.0 mph NNE4.8 kmh NNE 9.8 mph15.8 kmh 29.75 in1007.5 mb 0.00 in0.0 mm 0.00 in/hr0.0 mm/hr 0.65 in16.5 mm
06:00 PM 53.8°F12.1°C 47.8°F8.8°C 80% 3.7 mph N6.0 kmh N 14.5 mph23.3 kmh 29.75 in1007.5 mb 0.00 in0.0 mm 0.00 in/hr0.0 mm/hr 0.65 in16.5 mm
05:45 PM 53.2°F11.8°C 48.2°F9.0°C 83% 4.0 mph NE6.4 kmh NE 9.8 mph15.8 kmh 29.75 in1007.5 mb 0.00 in0.0 mm 0.00 in/hr0.0 mm/hr 0.65 in16.5 mm
05:30 PM 52.5°F11.4°C 48.1°F8.9°C 85% 2.9 mph N4.7 kmh N 9.4 mph15.1 kmh 29.75 in1007.5 mb 0.02 in0.5 mm 0.00 in/hr0.0 mm/hr 0.65 in16.5 mm
05:15 PM 52.0°F11.1°C 47.9°F8.8°C 86% 2.7 mph NW4.3 kmh NW 8.1 mph13.0 kmh 29.76 in1007.8 mb 0.04 in1.0 mm 0.00 in/hr0.0 mm/hr 0.65 in16.5 mm
05:00 PM 51.8°F11.0°C 47.7°F8.7°C 86% 2.0 mph NW3.2 kmh NW 6.9 mph11.1 kmh 29.76 in1007.8 mb 0.08 in2.0 mm 0.00 in/hr0.0 mm/hr 0.65 in16.5 mm
04:45 PM 51.6°F10.9°C 47.6°F8.7°C 86% 2.0 mph NW3.2 kmh NW 9.2 mph14.8 kmh 29.76 in1007.8 mb 0.10 in2.5 mm 0.00 in/hr0.0 mm/hr 0.65 in16.5 mm
04:30 PM 51.6°F10.9°C 47.6°F8.7°C 86% 1.4 mph SW2.3 kmh SW 10.1 mph16.3 kmh 29.76 in1007.8 mb 0.10 in2.5 mm 0.00 in/hr0.0 mm/hr 0.63 in16.0 mm
04:15 PM 51.6°F10.9°C 47.6°F8.7°C 86% 1.5 mph NW2.4 kmh NW 7.8 mph12.6 kmh 29.76 in1007.8 mb 0.10 in2.5 mm 0.16 in/hr4.1 mm/hr 0.61 in15.5 mm
04:00 PM 51.6°F10.9°C 47.6°F8.7°C 86% 1.9 mph WNW3.1 kmh WNW 6.0 mph9.7 kmh 29.76 in1007.8 mb 0.06 in1.5 mm 0.03 in/hr0.8 mm/hr 0.57 in14.5 mm
03:45 PM 51.6°F10.9°C 47.6°F8.7°C 86% 1.1 mph SW1.8 kmh SW 5.1 mph8.2 kmh 29.76 in1007.8 mb 0.04 in1.0 mm 0.00 in/hr0.0 mm/hr 0.55 in14.0 mm
03:30 PM 51.6°F10.9°C 47.6°F8.7°C 86% 2.2 mph NE3.5 kmh NE 14.8 mph23.8 kmh 29.76 in1007.8 mb 0.04 in1.0 mm 0.00 in/hr0.0 mm/hr 0.53 in13.5 mm
03:15 PM 51.6°F10.9°C 47.6°F8.7°C 86% 2.1 mph NNE3.4 kmh NNE 8.1 mph13.0 kmh 29.75 in1007.5 mb 0.04 in1.0 mm 0.00 in/hr0.0 mm/hr 0.51 in13.0 mm
03:00 PM 51.6°F10.9°C 47.6°F8.7°C 86% 2.4 mph NNE3.9 kmh NNE 11.4 mph18.3 kmh 29.75 in1007.5 mb 0.06 in1.5 mm 0.00 in/hr0.0 mm/hr 0.51 in13.0 mm
02:45 PM 51.6°F10.9°C 47.6°F8.7°C 86% 2.7 mph NNE4.3 kmh NNE 9.8 mph15.8 kmh 29.75 in1007.5 mb 0.06 in1.5 mm 0.00 in/hr0.0 mm/hr 0.51 in13.0 mm
02:30 PM 51.8°F11.0°C 47.4°F8.6°C 85% 2.3 mph NNE3.7 kmh NNE 11.4 mph18.3 kmh 29.76 in1007.8 mb 0.06 in1.5 mm 0.08 in/hr2.0 mm/hr 0.49 in12.4 mm
02:15 PM 52.0°F11.1°C 47.6°F8.7°C 85% 2.0 mph NNE3.2 kmh NNE 7.4 mph11.9 kmh 29.76 in1007.8 mb 0.04 in1.0 mm 0.00 in/hr0.0 mm/hr 0.47 in11.9 mm
02:00 PM 52.2°F11.2°C 47.8°F8.8°C 85% 1.4 mph NW2.3 kmh NW 6.7 mph10.8 kmh 29.77 in1008.1 mb 0.04 in1.0 mm 0.00 in/hr0.0 mm/hr 0.45 in11.4 mm
01:45 PM 52.0°F11.1°C 47.6°F8.7°C 85% 2.0 mph NNE3.2 kmh NNE 6.5 mph10.5 kmh 29.77 in1008.1 mb 0.04 in1.0 mm 0.00 in/hr0.0 mm/hr 0.45 in11.4 mm
01:30 PM 52.0°F11.1°C 47.3°F8.5°C 84% 1.9 mph NNW3.1 kmh NNW 4.9 mph7.9 kmh 29.76 in1007.8 mb 0.04 in1.0 mm 0.00 in/hr0.0 mm/hr 0.43 in10.9 mm
01:15 PM 52.0°F11.1°C 47.3°F8.5°C 84% 2.3 mph NE3.7 kmh NE 8.7 mph14.0 kmh 29.76 in1007.8 mb 0.04 in1.0 mm 0.00 in/hr0.0 mm/hr 0.43 in10.9 mm
01:00 PM 51.8°F11.0°C 47.1°F8.4°C 84% 2.4 mph NE3.9 kmh NE 11.4 mph18.3 kmh 29.76 in1007.8 mb 0.04 in1.0 mm 0.00 in/hr0.0 mm/hr 0.41 in10.4 mm
12:45 PM 51.6°F10.9°C 46.9°F8.3°C 84% 2.6 mph N4.2 kmh N 8.9 mph14.3 kmh 29.76 in1007.8 mb 0.04 in1.0 mm 0.08 in/hr2.0 mm/hr 0.41 in10.4 mm
12:30 PM 51.6°F10.9°C 46.9°F8.3°C 84% 3.0 mph NE4.8 kmh NE 13.9 mph22.4 kmh 29.76 in1007.8 mb 0.02 in0.5 mm 0.00 in/hr0.0 mm/hr 0.39 in9.9 mm
11:45 AM 51.3°F10.7°C 46.9°F8.3°C 85% 1.9 mph E3.1 kmh E 8.9 mph14.3 kmh 29.76 in1007.8 mb 0.06 in1.5 mm 0.00 in/hr0.0 mm/hr 0.37 in9.4 mm
11:30 AM 51.1°F10.6°C 46.7°F8.2°C 85% 2.0 mph NNW3.2 kmh NNW 6.3 mph10.1 kmh 29.76 in1007.8 mb 0.08 in2.0 mm 0.00 in/hr0.0 mm/hr 0.37 in9.4 mm
11:15 AM 51.1°F10.6°C 46.4°F8.0°C 84% 1.8 mph NNW2.9 kmh NNW 4.5 mph7.2 kmh 29.77 in1008.1 mb 0.08 in2.0 mm 0.08 in/hr2.0 mm/hr 0.35 in8.9 mm
11:00 AM 51.1°F10.6°C 46.4°F8.0°C 84% 2.0 mph N3.2 kmh N 7.8 mph12.6 kmh 29.77 in1008.1 mb 0.06 in1.5 mm 0.00 in/hr0.0 mm/hr 0.33 in8.4 mm
10:45 AM 51.4°F10.8°C 46.4°F8.0°C 83% 2.1 mph N3.4 kmh N 8.5 mph13.7 kmh 29.77 in1008.1 mb 0.06 in1.5 mm 0.08 in/hr2.0 mm/hr 0.31 in7.9 mm
10:30 AM 51.6°F10.9°C 46.6°F8.1°C 83% 2.6 mph N4.2 kmh N 6.9 mph11.1 kmh 29.77 in1008.1 mb 0.04 in1.0 mm 0.00 in/hr0.0 mm/hr 0.29 in7.4 mm
10:15 AM 51.6°F10.9°C 46.6°F8.1°C 83% 2.7 mph N4.3 kmh N 8.3 mph13.4 kmh 29.77 in1008.1 mb 0.06 in1.5 mm 0.00 in/hr0.0 mm/hr 0.26 in6.6 mm
10:00 AM 51.6°F10.9°C 46.6°F8.1°C 83% 3.7 mph NNE6.0 kmh NNE 10.3 mph16.6 kmh 29.77 in1008.1 mb 0.08 in2.0 mm 0.00 in/hr0.0 mm/hr 0.26 in6.6 mm
09:45 AM 51.4°F10.8°C 46.4°F8.0°C 83% 3.0 mph NNE4.8 kmh NNE 7.4 mph11.9 kmh 29.77 in1008.1 mb 0.08 in2.0 mm 0.00 in/hr0.0 mm/hr 0.24 in6.1 mm
09:30 AM 51.4°F10.8°C 46.4°F8.0°C 83% 3.2 mph N5.1 kmh N 11.4 mph18.3 kmh 29.76 in1007.8 mb 0.10 in2.5 mm 0.08 in/hr2.0 mm/hr 0.24 in6.1 mm
09:15 AM 51.6°F10.9°C 46.3°F7.9°C 82% 3.5 mph NNE5.6 kmh NNE 12.1 mph19.5 kmh 29.76 in1007.8 mb 0.08 in2.0 mm 0.00 in/hr0.0 mm/hr 0.20 in5.1 mm
09:00 AM 51.6°F10.9°C 46.3°F7.9°C 82% 3.5 mph NE5.6 kmh NE 9.8 mph15.8 kmh 29.75 in1007.5 mb 0.08 in2.0 mm 0.03 in/hr0.8 mm/hr 0.18 in4.6 mm
08:45 AM 51.6°F10.9°C 46.3°F7.9°C 82% 3.1 mph N5.0 kmh N 10.3 mph16.6 kmh 29.74 in1007.1 mb 0.06 in1.5 mm 0.00 in/hr0.0 mm/hr 0.16 in4.1 mm
08:30 AM 51.8°F11.0°C 46.2°F7.9°C 81% 3.6 mph NNE5.8 kmh NNE 10.5 mph16.9 kmh 29.73 in1006.8 mb 0.06 in1.5 mm 0.00 in/hr0.0 mm/hr 0.14 in3.6 mm
08:15 AM 52.0°F11.1°C 46.0°F7.8°C 80% 3.5 mph N5.6 kmh N 10.7 mph17.2 kmh 29.73 in1006.8 mb 0.06 in1.5 mm 0.00 in/hr0.0 mm/hr 0.12 in3.0 mm
08:00 AM 52.2°F11.2°C 46.2°F7.9°C 80% 3.7 mph N6.0 kmh N 14.3 mph23.0 kmh 29.72 in1006.4 mb 0.06 in1.5 mm 0.00 in/hr0.0 mm/hr 0.10 in2.5 mm
07:45 AM 52.3°F11.3°C 46.0°F7.8°C 79% 3.2 mph N5.1 kmh N 9.2 mph14.8 kmh 29.72 in1006.4 mb 0.06 in1.5 mm 0.00 in/hr0.0 mm/hr 0.10 in2.5 mm
07:30 AM 52.3°F11.3°C 46.0°F7.8°C 79% 3.3 mph NW5.3 kmh NW 8.7 mph14.0 kmh 29.72 in1006.4 mb 0.06 in1.5 mm 0.00 in/hr0.0 mm/hr 0.08 in2.0 mm
07:15 AM 52.7°F11.5°C 46.0°F7.8°C 78% 3.1 mph NNW5.0 kmh NNW 8.1 mph13.0 kmh 29.72 in1006.4 mb 0.06 in1.5 mm 0.08 in/hr2.0 mm/hr 0.06 in1.5 mm
07:00 AM 52.7°F11.5°C 45.7°F7.6°C 77% 3.5 mph WSW5.6 kmh WSW 14.3 mph23.0 kmh 29.71 in1006.1 mb 0.04 in1.0 mm 0.00 in/hr0.0 mm/hr 0.04 in1.0 mm
06:45 AM 52.9°F11.6°C 45.5°F7.5°C 76% 3.1 mph NE5.0 kmh NE 9.6 mph15.4 kmh 29.71 in1006.1 mb 0.04 in1.0 mm 0.08 in/hr2.0 mm/hr 0.04 in1.0 mm
06:30 AM 53.4°F11.9°C 45.3°F7.4°C 74% 2.8 mph N4.5 kmh N 12.1 mph19.5 kmh 29.71 in1006.1 mb 0.02 in0.5 mm 0.08 in/hr2.0 mm/hr 0.02 in0.5 mm
06:15 AM 54.7°F12.6°C 45.1°F7.3°C 70% 2.9 mph W4.7 kmh W 7.4 mph11.9 kmh 29.71 in1006.1 mb 0.00 in0.0 mm 0.00 in/hr0.0 mm/hr 0.00 in0.0 mm
06:00 AM 55.9°F13.3°C 45.1°F7.3°C 67% 3.5 mph ESE5.6 kmh ESE 15.9 mph25.6 kmh 29.71 in1006.1 mb 0.00 in0.0 mm 0.00 in/hr0.0 mm/hr 0.00 in0.0 mm
05:45 AM 56.5°F13.6°C 44.4°F6.9°C 64% 2.3 mph SSW3.7 kmh SSW 9.8 mph15.8 kmh 29.71 in1006.1 mb 0.00 in0.0 mm 0.00 in/hr0.0 mm/hr 0.00 in0.0 mm
05:30 AM 57.4°F14.1°C 44.5°F6.9°C 62% 2.4 mph WNW3.9 kmh WNW 9.4 mph15.1 kmh 29.70 in1005.8 mb 0.00 in0.0 mm 0.00 in/hr0.0 mm/hr 0.00 in0.0 mm
05:15 AM 58.3°F14.6°C 44.0°F6.7°C 59% 1.8 mph SW2.9 kmh SW 8.3 mph13.4 kmh 29.71 in1006.1 mb 0.00 in0.0 mm 0.00 in/hr0.0 mm/hr 0.00 in0.0 mm
05:00 AM 59.5°F15.3°C 44.3°F6.8°C 57% 1.2 mph NW1.9 kmh NW 6.7 mph10.8 kmh 29.70 in1005.8 mb 0.00 in0.0 mm 0.00 in/hr0.0 mm/hr 0.00 in0.0 mm
04:45 AM 60.1°F15.6°C 43.9°F6.6°C 55% 2.5 mph N4.0 kmh N 9.2 mph14.8 kmh 29.69 in1005.4 mb 0.00 in0.0 mm 0.00 in/hr0.0 mm/hr 0.00 in0.0 mm
04:30 AM 60.1°F15.6°C 43.9°F6.6°C 55% 4.1 mph NE6.6 kmh NE 13.2 mph21.2 kmh 29.69 in1005.4 mb 0.00 in0.0 mm 0.00 in/hr0.0 mm/hr 0.00 in0.0 mm
04:15 AM 59.9°F15.5°C 43.7°F6.5°C 55% 2.7 mph NNE4.3 kmh NNE 11.4 mph18.3 kmh 29.69 in1005.4 mb 0.00 in0.0 mm 0.00 in/hr0.0 mm/hr 0.00 in0.0 mm
04:00 AM 59.9°F15.5°C 43.7°F6.5°C 55% 1.9 mph NNE3.1 kmh NNE 9.2 mph14.8 kmh 29.69 in1005.4 mb 0.00 in0.0 mm 0.00 in/hr0.0 mm/hr 0.00 in0.0 mm
03:45 AM 60.1°F15.6°C 43.9°F6.6°C 55% 3.3 mph N5.3 kmh N 10.1 mph16.3 kmh 29.70 in1005.8 mb 0.00 in0.0 mm 0.00 in/hr0.0 mm/hr 0.00 in0.0 mm
03:30 AM 60.1°F15.6°C 43.9°F6.6°C 55% 3.0 mph N4.8 kmh N 11.2 mph18.0 kmh 29.70 in1005.8 mb 0.00 in0.0 mm 0.00 in/hr0.0 mm/hr 0.00 in0.0 mm
03:15 AM 59.9°F15.5°C 43.7°F6.5°C 55% 4.2 mph N6.8 kmh N 12.5 mph20.1 kmh 29.69 in1005.4 mb 0.00 in0.0 mm 0.00 in/hr0.0 mm/hr 0.00 in0.0 mm
03:00 AM 59.7°F15.4°C 44.0°F6.7°C 56% 4.1 mph NNE6.6 kmh NNE 10.5 mph16.9 kmh 29.70 in1005.8 mb 0.00 in0.0 mm 0.00 in/hr0.0 mm/hr 0.00 in0.0 mm
02:45 AM 59.5°F15.3°C 43.8°F6.6°C 56% 3.8 mph NE6.1 kmh NE 13.0 mph20.9 kmh 29.70 in1005.8 mb 0.00 in0.0 mm 0.00 in/hr0.0 mm/hr 0.00 in0.0 mm
02:30 AM 59.2°F15.1°C 43.9°F6.6°C 57% 4.5 mph NNE7.2 kmh NNE 11.9 mph19.2 kmh 29.70 in1005.8 mb 0.00 in0.0 mm 0.00 in/hr0.0 mm/hr 0.00 in0.0 mm
02:15 AM 58.8°F14.9°C 43.6°F6.4°C 57% 2.7 mph N4.3 kmh N 9.2 mph14.8 kmh 29.70 in1005.8 mb 0.00 in0.0 mm 0.00 in/hr0.0 mm/hr 0.00 in0.0 mm
02:00 AM 58.8°F14.9°C 43.6°F6.4°C 57% 2.4 mph N3.9 kmh N 7.2 mph11.6 kmh 29.70 in1005.8 mb 0.00 in0.0 mm 0.00 in/hr0.0 mm/hr 0.00 in0.0 mm
01:45 AM 59.2°F15.1°C 43.9°F6.6°C 57% 2.9 mph N4.7 kmh N 14.3 mph23.0 kmh 29.70 in1005.8 mb 0.00 in0.0 mm 0.00 in/hr0.0 mm/hr 0.00 in0.0 mm
01:30 AM 59.2°F15.1°C 43.9°F6.6°C 57% 3.0 mph NE4.8 kmh NE 12.1 mph19.5 kmh 29.70 in1005.8 mb 0.00 in0.0 mm 0.00 in/hr0.0 mm/hr 0.00 in0.0 mm
01:15 AM 59.0°F15.0°C 43.8°F6.6°C 57% 2.7 mph NE4.3 kmh NE 7.8 mph12.6 kmh 29.70 in1005.8 mb 0.00 in0.0 mm 0.00 in/hr0.0 mm/hr 0.00 in0.0 mm
01:00 AM 58.8°F14.9°C 43.6°F6.4°C 57% 2.5 mph NE4.0 kmh NE 9.6 mph15.4 kmh 29.70 in1005.8 mb 0.00 in0.0 mm 0.00 in/hr0.0 mm/hr 0.00 in0.0 mm
12:45 AM 59.2°F15.1°C 43.9°F6.6°C 57% 3.4 mph NE5.5 kmh NE 11.6 mph18.7 kmh 29.71 in1006.1 mb 0.00 in0.0 mm 0.00 in/hr0.0 mm/hr 0.00 in0.0 mm
12:30 AM 59.0°F15.0°C 43.8°F6.6°C 57% 2.5 mph NNE4.0 kmh NNE 8.3 mph13.4 kmh 29.70 in1005.8 mb 0.00 in0.0 mm 0.00 in/hr0.0 mm/hr 0.00 in0.0 mm
12:15 AM 59.2°F15.1°C 43.9°F6.6°C 57% 2.9 mph N4.7 kmh N 10.7 mph17.2 kmh 29.71 in1006.1 mb 0.00 in0.0 mm 0.00 in/hr0.0 mm/hr 0.00 in0.0 mm
12:00 AM 59.0°F15.0°C 43.8°F6.6°C 57% 2.2 mph N3.5 kmh N 6.7 mph10.8 kmh 29.71 in1006.1 mb 0.00 in0.0 mm 0.00 in/hr0.0 mm/hr 0.00 in0.0 mm